Time;durP1;ratioP1;P1;durP2;ratioP2;P2;SDS_P1;SDS_P2;PMS_P1;PMS_P2;Temp;Humidity;BMP_temperature;BMP_pressure;BME280_temperature;BME280_humidity;BME280_pressure;Samples;Min_cycle;Max_cycle;Signal;HPM_P1;HPM_P2
2021/08/19 00:02:04;;;;;;;3.80;2.35;;;;;;;17.16;45.15;93866.75;4972746;28;20030;-74
2021/08/19 00:04:30;;;;;;;4.30;2.30;;;;;;;17.20;45.40;93866.84;4972039;28;20630;-74
2021/08/19 00:06:55;;;;;;;4.38;2.00;;;;;;;17.10;45.49;93857.41;4973016;28;20489;-73
2021/08/19 00:09:20;;;;;;;7.05;2.10;;;;;;;17.31;45.19;93869.72;4973664;28;20094;-73
2021/08/19 00:11:46;;;;;;;4.50;2.05;;;;;;;17.31;44.66;93872.41;4971046;28;20042;-74
2021/08/19 00:14:11;;;;;;;4.13;2.28;;;;;;;17.20;44.93;93868.75;4972952;28;20034;-74
2021/08/19 00:16:37;;;;;;;5.15;2.17;;;;;;;17.26;44.75;93865.41;4972395;28;21052;-73
2021/08/19 00:19:02;;;;;;;4.30;2.08;;;;;;;17.38;44.27;93865.28;4974335;28;20052;-75
2021/08/19 00:21:28;;;;;;;4.45;2.05;;;;;;;17.44;44.10;93868.47;4973634;28;20084;-74
2021/08/19 00:23:55;;;;;;;6.65;2.15;;;;;;;17.37;44.46;93874.47;4974192;28;20030;-74
2021/08/19 00:26:22;;;;;;;5.93;2.65;;;;;;;17.11;44.47;93866.25;4972689;28;21111;-73
2021/08/19 00:28:47;;;;;;;5.10;2.00;;;;;;;17.23;44.52;93868.03;4975983;28;20053;-75
2021/08/19 00:31:13;;;;;;;10.48;2.00;;;;;;;17.41;44.15;93864.56;4954409;28;20151;-74
2021/08/19 00:33:38;;;;;;;4.35;2.20;;;;;;;17.47;44.11;93859.69;4970033;28;20712;-74
2021/08/19 00:36:04;;;;;;;5.38;2.95;;;;;;;17.47;43.55;93862.38;4973056;28;20114;-74
2021/08/19 00:38:29;;;;;;;4.25;2.20;;;;;;;17.50;43.21;93864.38;4974568;28;20492;-73
2021/08/19 00:40:55;;;;;;;7.03;2.35;;;;;;;17.69;43.95;93875.09;4971525;28;20030;-74
2021/08/19 00:43:21;;;;;;;5.65;2.20;;;;;;;17.50;43.23;93861.69;4973352;28;20622;-73
2021/08/19 00:45:46;;;;;;;7.47;2.42;;;;;;;17.71;42.89;93883.56;4974029;28;20374;-74
2021/08/19 00:48:12;;;;;;;3.65;2.20;;;;;;;17.67;42.56;93869.28;4971005;28;20341;-74
2021/08/19 00:50:37;;;;;;;2.85;1.77;;;;;;;17.75;42.98;93867.50;4989216;28;20584;-74
2021/08/19 00:53:03;;;;;;;5.72;2.58;;;;;;;17.86;42.79;93858.50;4972842;28;20030;-74
2021/08/19 00:55:29;;;;;;;4.07;1.98;;;;;;;17.98;42.45;93863.75;4975575;28;20681;-74
2021/08/19 00:57:56;;;;;;;4.30;1.90;;;;;;;17.92;42.81;93853.59;4972846;28;20037;-74
2021/08/19 01:00:22;;;;;;;6.38;2.22;;;;;;;18.15;41.97;93850.94;4974010;28;20723;-73
2021/08/19 01:02:48;;;;;;;4.63;1.85;;;;;;;18.04;42.11;93856.13;4971871;28;20456;-74
2021/08/19 01:05:18;;;;;;;6.40;2.05;;;;;;;18.09;41.49;93861.22;4976213;28;20491;-73
2021/08/19 01:07:45;;;;;;;3.95;2.17;;;;;;;18.00;41.57;93864.16;4977753;28;20060;-74
2021/08/19 01:10:11;;;;;;;3.90;1.70;;;;;;;17.90;42.04;93851.25;4977304;28;20129;-74
2021/08/19 01:12:37;;;;;;;3.40;1.95;;;;;;;18.13;41.44;93866.69;4976860;28;20070;-74
2021/08/19 01:15:03;;;;;;;4.07;2.00;;;;;;;18.14;41.25;93868.25;4978029;28;20126;-75
2021/08/19 01:17:30;;;;;;;3.95;2.42;;;;;;;17.69;41.35;93847.44;4976721;28;20046;-73
2021/08/19 01:19:55;;;;;;;3.85;1.88;;;;;;;17.80;41.51;93859.91;4977721;28;20128;-74
2021/08/19 01:22:23;;;;;;;3.95;1.95;;;;;;;17.73;41.20;93840.97;4978143;28;20046;-74
2021/08/19 01:24:49;;;;;;;4.93;1.92;;;;;;;17.67;41.62;93863.13;4976297;28;20038;-73
2021/08/19 01:27:16;;;;;;;4.68;2.17;;;;;;;17.50;41.99;93867.06;4977098;28;20069;-74
2021/08/19 01:29:44;;;;;;;3.50;2.20;;;;;;;17.56;42.00;93865.63;4976827;28;20147;-76
2021/08/19 01:32:11;;;;;;;6.25;1.92;;;;;;;17.65;41.92;93851.97;4975311;28;20050;-76
2021/08/19 01:34:37;;;;;;;4.93;2.08;;;;;;;17.80;41.61;93851.06;4991763;28;20581;-74
2021/08/19 01:37:02;;;;;;;5.32;2.35;;;;;;;17.82;41.60;93846.91;4977035;28;20035;-75
2021/08/19 01:39:29;;;;;;;2.88;2.10;;;;;;;17.66;41.37;93853.50;4976967;28;20050;-73
2021/08/19 01:41:54;;;;;;;3.95;1.80;;;;;;;17.63;41.39;93849.63;4976250;28;20042;-74
2021/08/19 01:44:20;;;;;;;4.38;1.83;;;;;;;17.68;41.61;93857.41;4976044;28;20050;-73
2021/08/19 01:47:04;;;;;;;4.53;1.55;;;;;;;17.57;41.09;93845.66;4977353;28;20481;-73
2021/08/19 01:49:30;;;;;;;3.67;2.05;;;;;;;17.71;41.22;93845.13;4976895;28;20539;-74
2021/08/19 01:51:56;;;;;;;2.60;1.58;;;;;;;17.81;40.77;93849.94;4977724;28;20038;-74
2021/08/19 01:54:24;;;;;;;3.38;2.25;;;;;;;17.75;40.65;93846.75;4972631;28;20701;-74
2021/08/19 01:56:49;;;;;;;2.08;1.60;;;;;;;17.77;40.73;93854.47;4973088;28;20129;-74
2021/08/19 01:59:14;;;;;;;3.03;1.60;;;;;;;17.68;40.89;93846.66;4971921;28;20042;-73
2021/08/19 02:01:40;;;;;;;3.42;2.15;;;;;;;17.63;40.98;93824.66;4977757;28;20504;-74
2021/08/19 02:04:05;;;;;;;3.13;1.60;;;;;;;17.86;40.27;93836.97;4976257;28;20050;-74
2021/08/19 02:06:31;;;;;;;4.05;1.42;;;;;;;17.95;39.93;93840.22;4978811;28;20145;-74
2021/08/19 02:08:56;;;;;;;6.30;1.85;;;;;;;17.67;40.00;93817.41;4976777;28;20079;-75
2021/08/19 02:11:24;;;;;;;2.92;1.90;;;;;;;17.77;40.16;93828.38;4977035;28;21154;-74
2021/08/19 02:13:49;;;;;;;6.50;1.73;;;;;;;17.76;40.10;93842.94;4978418;28;20491;-74
2021/08/19 02:16:15;;;;;;;5.00;1.58;;;;;;;17.73;40.06;93843.66;4971900;28;20022;-74
2021/08/19 02:18:40;;;;;;;3.92;1.40;;;;;;;17.59;40.40;93851.47;4975901;28;20046;-74
2021/08/19 02:21:06;;;;;;;3.50;1.88;;;;;;;17.65;40.61;93831.19;4974549;28;20229;-74
2021/08/19 02:23:31;;;;;;;4.68;1.80;;;;;;;17.60;40.01;93842.25;4976734;28;20043;-74
2021/08/19 02:25:57;;;;;;;3.42;1.60;;;;;;;17.56;40.30;93839.50;4973579;28;20031;-74
2021/08/19 02:28:22;;;;;;;2.80;1.48;;;;;;;17.58;40.00;93833.78;4977227;28;20622;-74
2021/08/19 02:30:47;;;;;;;3.40;1.55;;;;;;;17.34;40.15;93836.78;4975322;28;20053;-74
2021/08/19 02:33:13;;;;;;;4.43;2.10;;;;;;;17.44;40.30;93838.91;4975259;28;20042;-74
2021/08/19 02:35:38;;;;;;;11.30;2.00;;;;;;;17.39;40.77;93844.56;4977930;28;20612;-75
2021/08/19 02:38:07;;;;;;;3.25;1.90;;;;;;;17.38;40.30;93827.66;4975182;28;21798;-74
2021/08/19 02:40:35;;;;;;;2.55;1.48;;;;;;;17.64;40.04;93835.06;4992539;28;20042;-74
2021/08/19 02:43:01;;;;;;;3.10;1.92;;;;;;;17.77;39.68;93847.19;4971498;28;20531;-74
2021/08/19 02:45:26;;;;;;;3.63;1.83;;;;;;;17.64;39.55;93818.91;4977634;28;20034;-75
2021/08/19 02:47:52;;;;;;;2.47;1.67;;;;;;;17.64;39.64;93834.28;4974683;28;20418;-75
2021/08/19 02:50:17;;;;;;;3.17;1.70;;;;;;;17.72;39.69;93835.94;4976790;28;20066;-74
2021/08/19 02:52:43;;;;;;;4.90;1.60;;;;;;;17.80;39.49;93849.16;4975506;28;20121;-73
2021/08/19 02:55:09;;;;;;;2.75;1.40;;;;;;;17.85;39.62;93840.78;4976236;28;20507;-75
2021/08/19 02:57:35;;;;;;;4.45;2.38;;;;;;;17.87;39.18;93849.28;4975042;28;20445;-74
2021/08/19 03:00:00;;;;;;;3.33;1.75;;;;;;;17.90;39.19;93851.25;4976040;28;20088;-75
2021/08/19 03:02:26;;;;;;;6.03;2.58;;;;;;;17.85;39.14;93856.16;4974822;28;20046;-74
2021/08/19 03:04:51;;;;;;;2.55;1.85;;;;;;;17.85;38.78;93840.00;4975693;28;20033;-74
2021/08/19 03:07:17;;;;;;;3.35;2.10;;;;;;;17.82;39.31;93844.22;4976689;28;20048;-73
2021/08/19 03:09:43;;;;;;;2.88;1.63;;;;;;;17.92;39.50;93862.47;4975854;28;20046;-73
2021/08/19 03:12:09;;;;;;;4.25;1.63;;;;;;;17.88;40.02;93852.78;4974331;28;20030;-76
2021/08/19 03:14:35;;;;;;;2.75;1.58;;;;;;;17.90;39.16;93870.09;4972904;28;20034;-74
2021/08/19 03:17:01;;;;;;;2.58;1.58;;;;;;;17.81;39.16;93866.84;4977303;28;20505;-74
2021/08/19 03:19:27;;;;;;;2.72;1.67;;;;;;;17.85;38.84;93862.31;4990388;28;20157;-74
2021/08/19 03:21:53;;;;;;;2.28;1.63;;;;;;;17.68;39.59;93889.69;4976488;28;20038;-74
2021/08/19 03:24:18;;;;;;;4.90;1.95;;;;;;;17.26;39.61;93818.97;4967652;28;20545;-74
2021/08/19 03:26:44;;;;;;;3.58;2.15;;;;;;;17.39;40.38;93884.88;4975612;28;20030;-74
2021/08/19 03:29:09;;;;;;;3.22;1.77;;;;;;;17.32;40.31;93869.38;4974448;28;20042;-74
2021/08/19 03:31:35;;;;;;;3.92;1.85;;;;;;;17.35;39.93;93882.13;4977230;28;20049;-74
2021/08/19 03:34:00;;;;;;;6.88;2.22;;;;;;;17.20;40.07;93874.13;4972779;28;20034;-75
2021/08/19 03:36:26;;;;;;;3.33;1.90;;;;;;;17.38;40.33;93891.38;4975474;28;20465;-74
2021/08/19 03:38:52;;;;;;;2.67;1.70;;;;;;;17.29;40.91;93875.47;4990172;28;20067;-75
2021/08/19 03:41:17;;;;;;;3.40;2.00;;;;;;;17.33;40.43;93878.22;4976178;28;20061;-73
2021/08/19 03:43:45;;;;;;;4.57;2.15;;;;;;;17.33;40.08;93875.53;4975277;28;20484;-74
2021/08/19 03:46:11;;;;;;;2.85;1.60;;;;;;;17.37;40.05;93893.28;4973765;28;20089;-73
2021/08/19 03:48:36;;;;;;;2.63;1.70;;;;;;;17.37;39.89;93884.44;4973862;28;20042;-73
2021/08/19 03:51:03;;;;;;;4.40;1.83;;;;;;;17.26;39.71;93872.72;4970746;28;20039;-74
2021/08/19 03:53:29;;;;;;;4.35;2.35;;;;;;;17.38;41.09;93880.63;4974224;28;20712;-75
2021/08/19 03:55:55;;;;;;;2.30;1.50;;;;;;;17.44;39.89;93890.75;4971840;28;20113;-75
2021/08/19 03:58:20;;;;;;;3.08;1.95;;;;;;;17.36;39.93;93883.66;4974737;28;20034;-74
2021/08/19 04:00:47;;;;;;;3.95;1.77;;;;;;;17.31;39.94;93869.72;4970290;28;21384;-74
2021/08/19 04:03:14;;;;;;;6.47;1.83;;;;;;;17.49;39.37;93887.00;4972985;28;20049;-74
2021/08/19 04:05:40;;;;;;;7.07;1.75;;;;;;;17.45;40.28;93867.34;4972683;28;20086;-74
2021/08/19 04:08:05;;;;;;;2.58;1.75;;;;;;;17.41;39.47;93885.28;4971869;28;20259;-75
2021/08/19 04:10:31;;;;;;;5.20;2.20;;;;;;;17.37;39.71;93879.06;4970666;28;20560;-75
2021/08/19 04:12:56;;;;;;;6.45;2.17;;;;;;;17.35;39.61;93873.28;4970896;28;20162;-74
2021/08/19 04:15:21;;;;;;;5.90;1.83;;;;;;;17.27;39.34;93869.66;4971327;28;20041;-75
2021/08/19 04:17:48;;;;;;;6.25;2.05;;;;;;;17.39;39.29;93866.06;4973545;28;20038;-75
2021/08/19 04:20:13;;;;;;;4.05;1.88;;;;;;;17.55;39.41;93880.22;4975649;28;20043;-74
2021/08/19 04:22:38;;;;;;;3.25;1.90;;;;;;;17.66;39.12;93891.16;4971550;28;20034;-74
2021/08/19 04:25:04;;;;;;;3.75;1.77;;;;;;;17.74;39.13;93898.25;4972878;28;20047;-75
2021/08/19 04:27:30;;;;;;;2.90;1.95;;;;;;;17.81;38.97;93899.13;4972299;28;20043;-74
2021/08/19 04:29:55;;;;;;;2.85;1.77;;;;;;;17.87;39.04;93886.97;4973953;28;20454;-74
2021/08/19 04:32:21;;;;;;;3.67;2.10;;;;;;;17.81;39.04;93896.44;4970847;28;20039;-73
2021/08/19 04:34:46;;;;;;;3.63;2.13;;;;;;;17.78;38.82;93889.09;4972656;28;20625;-72
2021/08/19 04:37:12;;;;;;;2.70;2.03;;;;;;;17.99;38.90;93892.19;4973788;28;20125;-72
2021/08/19 04:39:37;;;;;;;4.25;2.15;;;;;;;18.09;38.84;93892.75;4974323;28;20073;-72
2021/08/19 04:42:03;;;;;;;2.92;1.83;;;;;;;18.06;38.68;93875.41;4971780;28;20038;-73
2021/08/19 04:44:28;;;;;;;3.60;1.70;;;;;;;18.13;38.46;93882.84;4973127;28;20319;-74
2021/08/19 04:46:54;;;;;;;6.55;2.10;;;;;;;18.30;38.64;93887.72;4972118;28;20469;-74
2021/08/19 04:49:19;;;;;;;4.00;2.08;;;;;;;18.31;38.64;93894.66;4975642;28;20476;-73
2021/08/19 04:51:45;;;;;;;6.70;2.13;;;;;;;18.47;38.03;93889.94;4972454;28;20133;-75
2021/08/19 04:54:11;;;;;;;7.22;2.35;;;;;;;18.48;37.67;93872.63;4973241;28;20034;-73
2021/08/19 04:56:37;;;;;;;6.10;2.83;;;;;;;18.46;38.02;93875.69;4975183;28;20057;-72
2021/08/19 04:59:10;;;;;;;3.75;2.10;;;;;;;18.61;37.75;93887.47;4972562;28;20034;-72
2021/08/19 05:01:38;;;;;;;5.47;2.25;;;;;;;18.62;37.44;93894.41;4975014;28;20968;-72
2021/08/19 05:04:03;;;;;;;4.78;1.88;;;;;;;18.51;37.53;93890.78;4972046;28;20034;-74
2021/08/19 05:06:30;;;;;;;4.88;2.22;;;;;;;18.59;37.82;93899.72;4974095;28;20123;-74
2021/08/19 05:08:57;;;;;;;5.22;1.85;;;;;;;18.60;38.11;93902.06;4971420;28;20523;-74
2021/08/19 05:11:23;;;;;;;5.82;2.03;;;;;;;18.56;37.66;93901.25;4976105;28;20058;-74
2021/08/19 05:13:50;;;;;;;2.50;1.50;;;;;;;18.61;37.71;93903.63;4972765;28;20176;-74
2021/08/19 05:16:15;;;;;;;5.70;1.92;;;;;;;18.61;37.74;93906.31;4974680;28;20480;-74
2021/08/19 05:18:41;;;;;;;7.93;2.22;;;;;;;18.53;38.06;93899.25;4972452;28;20089;-74
2021/08/19 05:21:08;;;;;;;3.15;1.73;;;;;;;18.54;37.98;93903.50;4974334;28;20031;-74
2021/08/19 05:23:33;;;;;;;4.55;2.47;;;;;;;18.60;38.00;93906.69;4972484;28;20425;-74
2021/08/19 05:25:59;;;;;;;4.97;2.00;;;;;;;18.74;37.64;93915.00;4972990;28;20054;-74
2021/08/19 05:28:24;;;;;;;5.55;1.83;;;;;;;18.77;37.07;93917.00;4973988;28;20528;-74
2021/08/19 05:30:50;;;;;;;6.75;1.92;;;;;;;18.81;37.54;93921.28;4971043;28;20082;-73
2021/08/19 05:33:16;;;;;;;4.78;2.58;;;;;;;18.74;37.50;93923.09;4974998;28;20493;-74
2021/08/19 05:35:42;;;;;;;5.03;2.15;;;;;;;18.78;37.95;93924.69;4988754;28;20049;-75
2021/08/19 05:38:07;;;;;;;4.13;1.80;;;;;;;18.54;37.41;93908.13;4974791;28;20521;-75
2021/08/19 05:40:32;;;;;;;2.95;1.85;;;;;;;18.56;37.68;93903.94;4973941;28;20506;-74
2021/08/19 05:42:58;;;;;;;5.03;1.95;;;;;;;18.48;37.46;93913.03;4974362;28;20030;-74
2021/08/19 05:45:23;;;;;;;5.00;1.95;;;;;;;18.59;37.73;93913.97;4972229;28;20046;-74
2021/08/19 05:47:48;;;;;;;6.20;2.75;;;;;;;18.68;38.02;93919.88;4975275;28;20042;-75
2021/08/19 05:50:14;;;;;;;3.15;1.60;;;;;;;18.71;37.93;93919.22;4972475;28;20042;-74
2021/08/19 05:52:40;;;;;;;5.15;2.20;;;;;;;18.73;38.03;93908.84;4978051;28;20145;-74
2021/08/19 05:55:06;;;;;;;3.63;1.80;;;;;;;18.92;37.67;93909.91;4976212;28;20404;-75
2021/08/19 05:57:32;;;;;;;2.80;2.10;;;;;;;18.88;37.98;93910.59;4976461;28;20026;-75
2021/08/19 05:59:57;;;;;;;8.27;1.92;;;;;;;18.59;37.44;93911.28;4976082;28;20606;-74
2021/08/19 06:02:23;;;;;;;10.32;1.85;;;;;;;18.64;38.31;93912.91;4975658;28;20034;-74
2021/08/19 06:04:48;;;;;;;6.35;2.33;;;;;;;18.78;38.19;93923.91;4976882;28;20424;-74
2021/08/19 06:07:13;;;;;;;9.77;2.25;;;;;;;18.48;38.36;93919.19;4979740;28;20030;-74
2021/08/19 06:09:39;;;;;;;5.13;2.50;;;;;;;18.30;38.65;93903.88;4976158;28;20145;-74
2021/08/19 06:12:05;;;;;;;6.75;2.08;;;;;;;18.32;38.42;93913.16;4973619;28;20432;-73
2021/08/19 06:14:30;;;;;;;5.35;2.50;;;;;;;18.30;38.69;93903.88;4979321;28;20038;-73
2021/08/19 06:16:56;;;;;;;8.10;2.30;;;;;;;18.18;38.84;93893.31;4976587;28;20022;-75
2021/08/19 06:19:21;;;;;;;4.63;2.20;;;;;;;18.45;39.26;93905.66;4958572;28;20269;-74
2021/08/19 06:21:47;;;;;;;4.53;2.45;;;;;;;18.51;38.55;93901.53;4974155;28;20038;-75
2021/08/19 06:24:13;;;;;;;6.95;1.90;;;;;;;18.70;38.59;93912.25;4976269;28;20045;-74
2021/08/19 06:26:38;;;;;;;5.00;2.08;;;;;;;18.77;38.40;93896.19;4975192;28;20070;-73
2021/08/19 06:29:04;;;;;;;3.25;2.00;;;;;;;18.85;38.09;93903.25;4974652;28;20153;-74
2021/08/19 06:31:29;;;;;;;4.93;2.25;;;;;;;18.61;38.12;93895.56;4976945;28;20294;-74
2021/08/19 06:33:55;;;;;;;7.03;2.60;;;;;;;18.61;38.81;93914.41;4977305;28;20034;-74
2021/08/19 06:36:20;;;;;;;3.35;2.17;;;;;;;18.67;38.10;93904.09;4975158;28;20157;-73
2021/08/19 06:38:46;;;;;;;9.55;2.55;;;;;;;18.62;38.29;93893.63;4973731;28;20235;-73
2021/08/19 06:41:11;;;;;;;6.70;2.47;;;;;;;18.74;38.66;93891.53;4975296;28;20566;-74
2021/08/19 06:43:37;;;;;;;3.83;2.60;;;;;;;18.88;38.72;93891.75;4977161;28;20528;-74
2021/08/19 06:46:02;;;;;;;6.75;2.90;;;;;;;18.70;38.16;93879.94;4976466;28;20038;-73
2021/08/19 06:48:28;;;;;;;5.78;2.30;;;;;;;18.68;38.63;93892.16;4976264;28;20042;-73
2021/08/19 06:50:53;;;;;;;2.95;1.90;;;;;;;18.63;39.06;93885.19;4974659;28;20066;-74
2021/08/19 06:53:19;;;;;;;4.25;2.13;;;;;;;18.72;38.93;93885.75;4976126;28;20523;-74
2021/08/19 06:55:45;;;;;;;5.70;2.67;;;;;;;18.61;38.73;93898.25;4977222;28;20306;-74
2021/08/19 06:58:10;;;;;;;4.28;2.70;;;;;;;18.54;39.39;93887.34;4974839;28;20120;-76
2021/08/19 07:00:35;;;;;;;4.47;2.00;;;;;;;18.62;39.42;93872.88;4970132;28;20042;-76
2021/08/19 07:03:01;;;;;;;12.73;2.90;;;;;;;18.80;39.18;93879.31;4971030;28;20050;-74
2021/08/19 07:05:26;;;;;;;7.55;2.90;;;;;;;18.97;38.61;93888.03;4976831;28;20046;-73
2021/08/19 07:07:58;;;;;;;6.70;2.85;;;;;;;19.08;38.97;93876.25;4976008;28;20117;-75
2021/08/19 07:10:24;;;;;;;5.18;2.42;;;;;;;19.19;38.25;93869.06;4977405;28;20050;-75
2021/08/19 07:12:49;;;;;;;3.65;2.17;;;;;;;19.32;37.47;93893.88;4973969;28;20565;-73
2021/08/19 07:15:14;;;;;;;4.20;1.80;;;;;;;19.22;35.53;93889.13;4974793;28;20038;-75
2021/08/19 07:17:40;;;;;;;4.68;1.98;;;;;;;19.23;35.39;93885.28;4972315;28;20043;-75
2021/08/19 07:20:06;;;;;;;3.85;1.90;;;;;;;19.32;36.49;93893.88;4972025;28;20629;-73
2021/08/19 07:22:32;;;;;;;2.85;1.75;;;;;;;19.31;36.11;93900.44;4975410;28;20030;-73
2021/08/19 07:24:57;;;;;;;5.05;2.38;;;;;;;19.38;36.36;93892.41;4973266;28;20053;-73
2021/08/19 07:27:23;;;;;;;5.65;2.65;;;;;;;19.12;36.94;93878.97;4975884;28;20042;-75
2021/08/19 07:29:50;;;;;;;4.20;2.20;;;;;;;19.33;36.41;93890.03;4971487;28;20057;-74
2021/08/19 07:32:19;;;;;;;4.00;1.98;;;;;;;19.46;37.05;93899.47;4973547;28;20046;-73
2021/08/19 07:34:44;;;;;;;11.65;3.20;;;;;;;19.51;37.11;93882.97;4963761;28;20026;-74
2021/08/19 07:37:10;;;;;;;4.03;2.13;;;;;;;19.54;36.90;93893.03;4969331;28;20057;-76
2021/08/19 07:39:36;;;;;;;5.85;1.92;;;;;;;19.45;37.11;93889.84;4973147;28;20074;-73
2021/08/19 07:42:01;;;;;;;4.07;2.35;;;;;;;19.48;37.08;93891.81;4964207;28;20124;-74
2021/08/19 07:44:27;;;;;;;5.20;2.33;;;;;;;19.56;37.12;93893.44;4972568;28;20096;-74
2021/08/19 07:46:52;;;;;;;7.70;2.72;;;;;;;19.51;36.89;93872.19;4971481;28;20389;-73
2021/08/19 07:49:20;;;;;;;8.75;2.03;;;;;;;19.83;36.39;93894.13;4972818;28;20132;-73
2021/08/19 07:51:46;;;;;;;5.32;2.45;;;;;;;19.90;36.21;93891.50;4974013;28;20042;-74
2021/08/19 07:54:11;;;;;;;7.55;2.25;;;;;;;19.95;36.21;93893.88;4972624;28;20524;-73
2021/08/19 07:56:37;;;;;;;10.85;2.53;;;;;;;20.04;36.47;93888.19;4969581;28;20034;-73
2021/08/19 07:59:02;;;;;;;7.05;1.83;;;;;;;19.99;35.96;93889.31;4975222;28;20046;-73
2021/08/19 08:01:27;;;;;;;3.83;2.08;;;;;;;20.03;36.12;93881.25;4973651;28;20022;-73
2021/08/19 08:03:53;;;;;;;6.80;2.40;;;;;;;20.11;36.38;93888.25;4972411;28;20054;-73
2021/08/19 08:06:18;;;;;;;3.80;2.35;;;;;;;20.16;36.04;93867.13;4974758;28;20042;-74
2021/08/19 08:08:44;;;;;;;4.82;2.03;;;;;;;20.30;35.43;93887.28;4976897;28;20858;-74
2021/08/19 08:11:10;;;;;;;9.95;2.10;;;;;;;20.17;35.14;93870.59;4972502;28;20046;-73
2021/08/19 08:13:35;;;;;;;5.75;2.45;;;;;;;20.24;34.96;93870.66;4974139;28;20502;-73
2021/08/19 08:16:01;;;;;;;2.28;1.88;;;;;;;20.34;34.61;93872.66;4974818;28;20046;-73
2021/08/19 08:18:26;;;;;;;4.65;2.47;;;;;;;20.30;36.42;93861.06;4973954;28;20505;-74
2021/08/19 08:20:53;;;;;;;3.80;1.40;;;;;;;20.42;34.94;93874.28;4969080;28;20599;-74
2021/08/19 08:23:20;;;;;;;2.40;1.60;;;;;;;20.41;34.79;93875.44;4976760;28;20034;-74
2021/08/19 08:25:49;;;;;;;4.35;2.00;;;;;;;20.42;34.94;93874.28;4966046;28;21126;-73
2021/08/19 08:28:19;;;;;;;9.10;2.05;;;;;;;20.38;34.47;93867.31;4973213;28;20042;-73
2021/08/19 08:30:46;;;;;;;5.55;1.80;;;;;;;20.37;35.25;93850.34;4972452;28;20070;-75
2021/08/19 08:33:13;;;;;;;6.43;2.53;;;;;;;20.55;34.27;93856.63;4973440;28;20125;-73
2021/08/19 08:35:38;;;;;;;6.55;1.90;;;;;;;20.56;34.79;93863.59;4967935;28;20145;-73
2021/08/19 08:38:06;;;;;;;5.43;1.92;;;;;;;20.72;34.67;93859.84;4968243;28;20484;-73
2021/08/19 08:40:37;;;;;;;4.20;1.77;;;;;;;20.75;34.07;93861.78;4985826;28;20077;-73
2021/08/19 08:43:06;;;;;;;8.23;2.25;;;;;;;20.85;34.25;93861.88;4972098;28;20042;-73
2021/08/19 08:45:37;;;;;;;2.97;1.40;;;;;;;20.98;33.39;93859.66;4972535;28;20034;-73
2021/08/19 08:48:04;;;;;;;9.15;2.08;;;;;;;21.09;34.02;93860.50;4972420;28;20049;-73
2021/08/19 08:50:30;;;;;;;4.47;2.25;;;;;;;21.00;33.93;93847.31;4976930;28;20038;-73
2021/08/19 08:52:57;;;;;;;4.43;1.58;;;;;;;21.28;33.96;93860.19;4974308;28;20045;-74
2021/08/19 08:55:23;;;;;;;6.40;2.63;;;;;;;21.34;32.65;93858.69;4970343;28;20567;-73
2021/08/19 08:57:49;;;;;;;3.08;1.65;;;;;;;21.25;32.65;93842.03;4975863;28;20046;-75
2021/08/19 09:00:15;;;;;;;3.38;1.95;;;;;;;21.27;32.84;93853.25;4973985;28;20045;-74
2021/08/19 09:02:41;;;;;;;4.82;2.05;;;;;;;21.49;31.03;93847.94;4971771;28;20409;-75
2021/08/19 09:05:26;;;;;;;4.43;1.40;;;;;;;21.55;30.78;93835.63;4975059;28;20392;-75
2021/08/19 09:08:00;;;;;;;2.00;1.20;;;;;;;21.63;30.81;93842.59;4973077;28;20026;-74
2021/08/19 09:10:28;;;;;;;5.10;1.48;;;;;;;21.51;30.96;93821.28;4974324;28;20082;-74
2021/08/19 09:12:54;;;;;;;3.53;1.35;;;;;;;21.64;30.60;93838.72;4972790;28;20043;-75
2021/08/19 09:15:25;;;;;;;2.10;1.63;;;;;;;21.70;30.40;93832.56;4974998;28;20061;-73
2021/08/19 09:17:53;;;;;;;5.15;1.48;;;;;;;21.79;29.88;93840.31;4974228;28;20080;-74
2021/08/19 09:20:31;;;;;;;4.35;1.67;;;;;;;21.66;29.39;93825.56;4974003;28;20034;-73
2021/08/19 09:23:04;;;;;;;2.78;1.10;;;;;;;21.73;27.70;93839.13;4972150;28;20030;-74
2021/08/19 09:25:38;;;;;;;4.03;1.00;;;;;;;21.60;27.94;93827.91;4989736;28;20041;-74
2021/08/19 09:28:30;;;;;;;1.45;1.00;;;;;;;21.90;29.39;93832.22;4975565;28;20118;-74
2021/08/19 09:31:03;;;;;;;2.47;1.40;;;;;;;21.99;29.38;93824.50;4975484;28;20041;-75
2021/08/19 09:33:31;;;;;;;3.63;1.23;;;;;;;22.09;29.30;93829.94;4977355;28;20080;-73
2021/08/19 09:36:00;;;;;;;2.65;1.15;;;;;;;22.21;29.45;93820.66;4976350;28;20390;-73
2021/08/19 09:38:37;;;;;;;3.10;1.27;;;;;;;22.26;28.15;93815.66;4976955;28;20034;-74
2021/08/19 09:41:13;;;;;;;3.40;1.10;;;;;;;22.35;28.41;93814.47;4978293;28;20335;-73
2021/08/19 09:43:42;;;;;;;3.13;1.15;;;;;;;22.34;27.24;93810.25;4977640;28;20540;-74
2021/08/19 09:46:09;;;;;;;3.25;1.30;;;;;;;22.27;27.94;93795.53;4975878;28;20042;-73
2021/08/19 09:48:35;;;;;;;8.90;1.70;;;;;;;22.21;27.35;93796.28;4978786;28;20501;-73
2021/08/19 09:51:22;;;;;;;5.25;1.10;;;;;;;22.57;26.98;93802.47;4973974;28;20034;-74
2021/08/19 09:53:58;;;;;;;3.45;0.85;;;;;;;22.63;26.17;93793.56;4977249;28;20038;-74
2021/08/19 09:56:37;;;;;;;1.92;1.05;;;;;;;22.72;26.20;93795.88;4976411;28;20047;-74
2021/08/19 09:59:25;;;;;;;3.67;1.40;;;;;;;22.79;25.87;93795.06;4978743;28;20041;-74
2021/08/19 10:01:57;;;;;;;4.35;1.13;;;;;;;22.78;25.37;93778.03;4975389;28;20104;-74
2021/08/19 10:04:25;;;;;;;6.43;1.27;;;;;;;22.73;25.54;93792.00;4975511;28;20516;-74
2021/08/19 10:06:54;;;;;;;3.65;1.23;;;;;;;22.74;25.89;93785.41;4975258;28;20129;-74
2021/08/19 10:09:20;;;;;;;1.40;1.05;;;;;;;22.72;25.49;93771.47;4975677;28;20106;-73
2021/08/19 10:11:47;;;;;;;3.47;1.33;;;;;;;22.93;25.18;93776.84;4971003;28;20117;-75
2021/08/19 10:14:18;;;;;;;2.25;1.60;;;;;;;22.84;25.86;93773.00;4980260;28;20580;-75
2021/08/19 10:16:44;;;;;;;1.90;1.20;;;;;;;22.68;26.26;93771.47;4976931;28;20049;-74
2021/08/19 10:19:30;;;;;;;1.60;1.00;;;;;;;22.85;28.70;93769.91;4976296;28;20034;-73
2021/08/19 10:22:11;;;;;;;3.33;1.23;;;;;;;22.91;26.43;93770.28;4975987;28;20050;-74
2021/08/19 10:24:40;;;;;;;1.75;1.10;;;;;;;22.99;26.33;93775.31;4976315;28;20073;-74
2021/08/19 10:27:13;;;;;;;4.53;1.08;;;;;;;23.06;25.28;93769.09;4977012;28;20085;-75
2021/08/19 10:29:53;;;;;;;1.63;1.17;;;;;;;23.00;24.78;93763.28;4979137;28;21326;-74
2021/08/19 10:32:29;;;;;;;4.43;1.25;;;;;;;23.07;24.59;93765.22;4977571;28;20042;-75
2021/08/19 10:34:59;;;;;;;3.80;1.20;;;;;;;23.06;25.15;93759.00;4989809;28;20030;-74
2021/08/19 10:37:49;;;;;;;3.33;0.88;;;;;;;23.30;23.03;93764.72;4977910;28;20046;-76
2021/08/19 10:40:21;;;;;;;0.93;0.85;;;;;;;23.45;24.08;93760.78;4977709;28;20050;-75
2021/08/19 10:42:55;;;;;;;3.30;1.00;;;;;;;23.41;23.08;93758.09;4974540;28;20038;-75
2021/08/19 10:45:26;;;;;;;2.17;1.05;;;;;;;23.56;23.37;93753.38;4976004;28;20073;-74
2021/08/19 10:47:53;;;;;;;2.72;1.33;;;;;;;23.66;23.04;93752.53;4976746;28;20043;-75
2021/08/19 10:50:31;;;;;;;2.35;1.10;;;;;;;23.82;23.06;93750.09;4977927;28;20073;-73
2021/08/19 10:53:08;;;;;;;1.45;1.00;;;;;;;23.85;23.30;93757.47;4976637;28;20034;-74
2021/08/19 10:55:48;;;;;;;3.25;1.10;;;;;;;23.82;25.09;93747.38;4977311;28;20102;-74
2021/08/19 10:58:30;;;;;;;4.57;1.20;;;;;;;23.79;26.41;93756.34;4973224;28;20134;-76
2021/08/19 11:00:58;;;;;;;4.95;1.38;;;;;;;24.02;24.89;93745.69;4992637;28;20456;-74
2021/08/19 11:03:39;;;;;;;2.80;1.10;;;;;;;23.84;23.93;93749.72;4974140;28;20153;-77
2021/08/19 11:06:06;;;;;;;2.55;1.17;;;;;;;23.97;24.36;93750.78;4990628;28;20232;-76
2021/08/19 11:08:51;;;;;;;6.05;1.42;;;;;;;24.06;24.32;93744.88;4976807;28;20551;-74
2021/08/19 11:11:36;;;;;;;2.70;1.17;;;;;;;24.13;24.24;93739.44;4976734;28;20548;-75
2021/08/19 11:14:04;;;;;;;;;;;;;;;24.31;26.16;93745.47;4976927;28;20153;-75
2021/08/19 11:16:31;;;;;;;3.10;1.27;;;;;;;24.32;23.85;93741.59;4976823;28;19944;-74
2021/08/19 11:19:11;;;;;;;3.10;1.50;;;;;;;24.40;24.83;93732.97;4975419;28;20065;-74
2021/08/19 11:21:37;;;;;;;2.33;1.48;;;;;;;24.46;24.22;93722.44;4975751;28;20512;-73
2021/08/19 11:24:02;;;;;;;2.10;1.27;;;;;;;24.44;23.83;93739.13;4975962;28;20504;-73
2021/08/19 11:26:28;;;;;;;3.28;1.08;;;;;;;24.39;25.58;93717.81;4975728;28;20492;-74
2021/08/19 11:28:53;;;;;;;1.58;1.20;;;;;;;24.27;24.61;93728.44;4974579;28;20465;-73
2021/08/19 11:31:21;;;;;;;3.03;1.20;;;;;;;24.35;24.55;93732.63;4976252;28;21090;-74
2021/08/19 11:33:49;;;;;;;4.75;1.23;;;;;;;24.19;24.34;93725.03;4975253;28;20080;-74
2021/08/19 11:36:15;;;;;;;1.63;1.08;;;;;;;24.37;24.11;93731.06;4976692;28;20459;-74